Time;durP1;ratioP1;P1;durP2;ratioP2;P2;SDS_P1;SDS_P2;PMS_P1;PMS_P2;Temp;Humidity;BMP_temperature;BMP_pressure;BME280_temperature;BME280_humidity;BME280_pressure;Samples;Min_cycle;Max_cycle;Signal;HPM_P1;HPM_P2
2023/10/27 00:02:15;;;;;;;;;6.33;6.33;;;;;13.92;89.40;98932.56;5037866;28;46731;-40
2023/10/27 00:04:40;;;;;;;;;3.00;1.00;;;;;13.91;88.74;98938.97;5032629;28;45381;-40
2023/10/27 00:07:06;;;;;;;;;0.00;0.00;;;;;13.90;88.74;98934.63;5017899;28;46055;-41
2023/10/27 00:09:33;;;;;;;;;2.67;1.00;;;;;13.92;88.25;98935.25;5017964;28;45317;-40
2023/10/27 00:11:58;;;;;;;;;1.00;1.00;;;;;13.86;88.45;98936.09;5017446;28;45432;-42
2023/10/27 00:14:23;;;;;;;;;5.67;2.00;;;;;13.91;88.88;98940.81;5018167;28;45217;-39
2023/10/27 00:16:50;;;;;;;;;2.33;1.00;;;;;13.89;88.69;98943.69;5017940;28;45328;-40
2023/10/27 00:19:16;;;;;;;;;1.67;1.67;;;;;13.90;89.07;98944.50;5017808;28;45471;-39
2023/10/27 00:21:41;;;;;;;;;2.00;1.00;;;;;13.89;88.89;98953.56;5017846;28;45516;-40
2023/10/27 00:24:07;;;;;;;;;0.00;0.00;;;;;13.82;89.15;98944.72;5018289;28;45642;-40
2023/10/27 00:26:32;;;;;;;;;0.67;0.00;;;;;13.87;89.25;98952.97;5017649;28;46881;-41
2023/10/27 00:28:57;;;;;;;;;1.00;1.00;;;;;13.85;88.90;98953.16;5017781;28;45406;-40
2023/10/27 00:31:23;;;;;;;;;1.67;1.00;;;;;13.85;88.89;98952.34;5017925;28;45275;-40
2023/10/27 00:33:48;;;;;;;;;1.00;0.00;;;;;13.84;89.49;98961.41;5017854;28;45345;-41
2023/10/27 00:36:13;;;;;;;;;0.67;0.67;;;;;13.84;89.73;98956.03;5017181;28;50064;-40
2023/10/27 00:38:38;;;;;;;;;1.00;1.00;;;;;13.83;89.94;98959.75;5017010;28;45385;-42
2023/10/27 00:41:04;;;;;;;;;1.00;1.00;;;;;13.87;89.85;98963.66;5017575;28;45380;-41
2023/10/27 00:43:29;;;;;;;;;3.00;1.00;;;;;13.87;89.38;98966.31;5017966;28;45793;-40
2023/10/27 00:45:55;;;;;;;;;0.33;0.33;;;;;13.85;90.09;98969.19;5017190;28;47150;-41
2023/10/27 00:48:21;;;;;;;;;2.67;2.00;;;;;13.86;89.76;98965.50;5016497;28;45361;-41
2023/10/27 00:50:48;;;;;;;;;1.00;1.00;;;;;13.86;89.98;98967.34;5016569;28;45404;-40
2023/10/27 00:53:18;;;;;;;;;2.67;2.00;;;;;13.87;89.97;98960.97;5017387;28;45291;-40
2023/10/27 00:55:44;;;;;;;;;1.00;1.00;;;;;13.88;89.89;98962.63;5017211;28;46222;-41
2023/10/27 00:58:11;;;;;;;;;2.00;2.00;;;;;13.88;90.11;98966.09;5017254;28;45487;-39
2023/10/27 01:00:37;;;;;;;;;2.00;2.00;;;;;13.90;90.21;98974.72;5017368;28;45698;-41
2023/10/27 01:03:04;;;;;;;;;2.00;2.00;;;;;13.91;90.48;98968.34;5017338;28;45452;-41
2023/10/27 01:05:29;;;;;;;;;2.33;1.00;;;;;13.78;90.12;98954.19;5029098;28;46427;-41
2023/10/27 01:07:55;;;;;;;;;1.00;1.00;;;;;13.91;90.34;98979.06;5036781;28;45404;-41
2023/10/27 01:10:21;;;;;;;;;3.00;3.00;;;;;13.91;89.78;98991.59;5037202;28;45291;-49
2023/10/27 01:12:50;;;;;;;;;3.00;1.33;;;;;13.92;90.31;98987.88;5037354;28;45321;-41
2023/10/27 01:15:16;;;;;;;;;2.00;1.00;;;;;13.88;90.22;98973.31;5036816;28;45476;-40
2023/10/27 01:17:41;;;;;;;;;3.00;2.00;;;;;13.90;90.29;98981.91;5036910;28;45378;-40
2023/10/27 01:20:07;;;;;;;;;1.00;1.00;;;;;13.90;89.85;98982.72;5037166;28;45434;-40
2023/10/27 01:22:40;;;;;;;;;4.00;1.00;;;;;13.91;89.51;98986.25;5037127;28;45387;-41
2023/10/27 01:25:06;;;;;;;;;3.00;1.00;;;;;13.92;89.68;98990.56;5036657;28;46659;-40
2023/10/27 01:27:32;;;;;;;;;3.00;0.00;;;;;13.91;89.29;98994.28;5036710;28;45357;-41
2023/10/27 01:29:58;;;;;;;;;8.33;8.00;;;;;13.92;88.96;98994.06;5037076;28;45384;-40
2023/10/27 01:32:23;;;;;;;;;3.00;3.00;;;;;13.92;88.83;99003.94;5036726;28;45415;-40
2023/10/27 01:34:49;;;;;;;;;2.00;1.67;;;;;13.89;87.94;98994.47;5036475;28;46694;-41
2023/10/27 01:37:14;;;;;;;;;3.00;1.00;;;;;13.76;88.36;98986.50;5036415;28;45343;-42
2023/10/27 01:39:39;;;;;;;;;2.33;2.33;;;;;13.81;88.53;98993.88;5036521;28;45301;-40
2023/10/27 01:42:05;;;;;;;;;2.00;0.00;;;;;13.81;87.86;99001.91;5036773;28;45269;-38
2023/10/27 01:44:30;;;;;;;;;2.00;2.00;;;;;13.81;87.31;99004.56;5036537;28;47052;-40
2023/10/27 01:46:56;;;;;;;;;2.00;2.00;;;;;13.80;87.24;99002.94;5036370;28;45279;-40
2023/10/27 01:49:21;;;;;;;;;1.00;1.00;;;;;13.77;87.08;99008.69;5036110;28;48955;-39
2023/10/27 01:51:46;;;;;;;;;1.00;1.00;;;;;13.75;87.00;99016.94;5036734;28;45260;-40
2023/10/27 01:54:12;;;;;;;;;2.33;1.00;;;;;13.69;86.99;99007.91;5036017;28;45416;-40
2023/10/27 01:56:37;;;;;;;;;3.00;0.67;;;;;13.65;87.21;99004.00;5036137;28;45424;-39
2023/10/27 01:59:02;;;;;;;;;3.00;1.00;;;;;13.59;87.01;99002.16;5036376;28;45319;-41
2023/10/27 02:01:28;;;;;;;;;0.33;0.33;;;;;13.58;87.27;99021.06;5036512;28;45462;-39
2023/10/27 02:03:53;;;;;;;;;1.00;0.00;;;;;13.50;87.41;99014.09;5034796;28;46397;-41
2023/10/27 02:06:23;;;;;;;;;1.67;1.67;;;;;13.47;87.17;99017.19;5035823;28;45420;-42
2023/10/27 02:08:48;;;;;;;;;0.33;0.33;;;;;13.41;87.02;99010.00;5036222;28;45659;-41
2023/10/27 02:11:14;;;;;;;;;1.33;0.33;;;;;13.37;87.41;99012.25;5036374;28;45199;-47
2023/10/27 02:13:39;;;;;;;;;1.00;1.00;;;;;13.32;87.56;99006.72;5035460;28;45362;-39
2023/10/27 02:16:04;;;;;;;;;4.00;1.00;;;;;13.26;87.70;99015.53;5035547;28;45376;-40
2023/10/27 02:18:30;;;;;;;;;2.33;1.00;;;;;13.25;88.01;99005.91;5036235;28;45403;-41
2023/10/27 02:20:55;;;;;;;;;2.33;1.33;;;;;13.22;87.70;99014.28;5036237;28;45315;-39
2023/10/27 02:23:20;;;;;;;;;1.00;1.00;;;;;13.15;87.95;99010.81;5017873;28;46143;-39
2023/10/27 02:25:46;;;;;;;;;3.33;2.00;;;;;13.17;88.13;99020.25;5035824;28;45363;-41
2023/10/27 02:28:11;;;;;;;;;2.00;2.00;;;;;13.13;88.26;99007.50;5035752;28;45452;-40
2023/10/27 02:30:37;;;;;;;;;1.00;0.67;;;;;13.10;88.06;99013.25;5036124;28;45492;-38
2023/10/27 02:33:02;;;;;;;;;2.00;2.00;;;;;13.07;88.13;99014.50;5035543;28;47035;-38
2023/10/27 02:35:28;;;;;;;;;2.00;2.00;;;;;13.04;88.93;99017.56;5035798;28;45403;-40
2023/10/27 02:37:54;;;;;;;;;1.00;1.00;;;;;13.02;88.71;99016.13;5035887;28;45278;-41
2023/10/27 02:40:19;;;;;;;;;5.00;2.00;;;;;12.99;88.63;99015.53;5035802;28;45269;-41
2023/10/27 02:42:44;;;;;;;;;4.00;2.33;;;;;12.97;88.46;99014.06;5035560;28;45321;-40
2023/10/27 02:45:10;;;;;;;;;0.00;0.00;;;;;12.97;88.34;99014.06;5034872;28;45377;-40
2023/10/27 02:47:35;;;;;;;;;0.00;0.00;;;;;12.93;88.89;99004.84;5035913;28;45345;-40
2023/10/27 02:50:01;;;;;;;;;3.67;2.33;;;;;12.89;88.83;99012.44;5036038;28;45459;-41
2023/10/27 02:52:26;;;;;;;;;2.00;2.00;;;;;12.80;88.71;99010.97;5035666;28;45425;-41
2023/10/27 02:54:51;;;;;;;;;2.33;1.00;;;;;12.88;88.75;99017.97;5017713;28;45444;-40
2023/10/27 02:57:16;;;;;;;;;3.33;1.00;;;;;12.87;89.52;99016.34;5035823;28;45430;-40
2023/10/27 02:59:42;;;;;;;;;8.67;3.00;;;;;12.84;88.74;99020.22;5035369;28;45305;-39
2023/10/27 03:02:08;;;;;;;;;5.00;3.67;;;;;12.82;88.60;99019.63;5034801;28;45300;-41
2023/10/27 03:04:34;;;;;;;;;1.67;1.67;;;;;12.82;88.50;99022.28;5034760;28;45548;-41
2023/10/27 03:06:59;;;;;;;;;1.67;1.00;;;;;12.80;89.01;99024.31;5035393;28;45335;-39
2023/10/27 03:09:25;;;;;;;;;2.00;1.00;;;;;12.81;88.68;99030.47;5035644;28;45353;-40
2023/10/27 03:11:50;;;;;;;;;4.00;1.00;;;;;12.76;88.33;99028.41;5035223;28;49299;-40
2023/10/27 03:14:16;;;;;;;;;3.67;1.00;;;;;12.78;87.98;99033.56;5035628;28;45265;-41
2023/10/27 03:16:43;;;;;;;;;2.00;2.00;;;;;12.76;88.55;99028.41;5038843;28;45433;-40
2023/10/27 03:19:09;;;;;;;;;3.00;1.00;;;;;12.77;88.87;99031.91;5038753;28;45415;-40
2023/10/27 03:21:35;;;;;;;;;2.67;1.00;;;;;12.77;88.46;99030.09;5038684;28;45427;-41
2023/10/27 03:24:00;;;;;;;;;4.00;1.00;;;;;12.80;88.42;99032.31;5038796;28;45885;-40
2023/10/27 03:26:26;;;;;;;;;2.33;1.00;;;;;12.79;88.73;99037.88;5038804;28;45384;-40
2023/10/27 03:28:51;;;;;;;;;3.00;1.33;;;;;12.79;88.27;99038.69;5038813;28;45242;-40
2023/10/27 03:31:17;;;;;;;;;5.00;2.00;;;;;12.76;88.69;99041.75;5038470;28;46204;-41
2023/10/27 03:33:43;;;;;;;;;4.00;4.00;;;;;12.82;88.54;99048.97;5038307;28;45548;-40
2023/10/27 03:36:09;;;;;;;;;2.00;2.00;;;;;12.88;88.46;99052.66;5037781;28;45376;-39
2023/10/27 03:38:34;;;;;;;;;1.00;1.00;;;;;12.89;88.77;99057.81;5038723;28;45327;-40
2023/10/27 03:40:59;;;;;;;;;3.67;2.00;;;;;12.97;88.38;99059.44;5038570;28;46096;-41
2023/10/27 03:43:25;;;;;;;;;2.00;1.33;;;;;12.99;87.61;99055.56;5038638;28;45378;-40
2023/10/27 03:45:50;;;;;;;;;1.00;1.00;;;;;13.02;87.76;99054.34;5038231;28;45245;-40
2023/10/27 03:48:15;;;;;;;;;3.00;1.67;;;;;13.04;87.84;99046.13;5038549;28;45308;-41
2023/10/27 03:50:42;;;;;;;;;3.33;2.33;;;;;12.94;87.72;99038.53;5038118;28;46254;-40
2023/10/27 03:53:07;;;;;;;;;3.00;2.00;;;;;13.04;87.24;99052.28;5038104;28;45378;-41
2023/10/27 03:55:33;;;;;;;;;2.00;2.00;;;;;13.02;87.38;99040.16;5038073;28;45508;-40
2023/10/27 03:58:15;;;;;;;;;4.00;2.00;;;;;12.91;87.87;99026.41;5038115;28;45403;-40
2023/10/27 04:00:41;;;;;;;;;3.67;2.33;;;;;13.03;87.29;99037.28;5037954;28;46363;-39
2023/10/27 04:03:06;;;;;;;;;7.00;2.67;;;;;13.02;88.21;99034.81;5037891;28;45422;-40
2023/10/27 04:05:31;;;;;;;;;1.00;1.00;;;;;13.00;87.42;99024.34;5038089;28;45269;-38
2023/10/27 04:07:57;;;;;;;;;5.33;1.33;;;;;12.93;87.86;99035.00;5038317;28;45330;-40
2023/10/27 04:10:22;;;;;;;;;3.00;2.67;;;;;12.92;88.13;99037.88;5037707;28;45472;-39
2023/10/27 04:12:47;;;;;;;;;3.33;2.00;;;;;12.89;88.50;99046.28;5037828;28;46029;-41
2023/10/27 04:15:13;;;;;;;;;3.33;2.00;;;;;12.85;87.74;99043.22;5037881;28;45494;-40
2023/10/27 04:17:38;;;;;;;;;2.00;2.00;;;;;12.81;88.55;99042.00;5038487;28;45512;-41
2023/10/27 04:20:04;;;;;;;;;3.00;3.00;;;;;12.79;88.72;99048.53;5037623;28;46985;-40
2023/10/27 04:22:30;;;;;;;;;4.00;2.00;;;;;12.77;88.83;99053.25;5037617;28;45475;-41
2023/10/27 04:24:55;;;;;;;;;3.33;3.00;;;;;12.76;89.44;99059.63;5037452;28;45438;-40
2023/10/27 04:27:20;;;;;;;;;3.00;2.00;;;;;12.77;89.43;99062.09;5037875;28;45399;-41
2023/10/27 04:29:46;;;;;;;;;5.00;4.00;;;;;12.77;89.28;99061.25;5037587;28;45431;-39
2023/10/27 04:32:13;;;;;;;;;4.00;3.00;;;;;12.72;89.51;99056.53;5037698;28;45467;-39
2023/10/27 04:34:39;;;;;;;;;6.00;3.00;;;;;12.71;89.63;99045.03;5037493;28;45401;-40
2023/10/27 04:37:04;;;;;;;;;5.00;3.33;;;;;12.70;89.90;99059.41;5037884;28;45325;-41
2023/10/27 04:39:29;;;;;;;;;4.67;1.33;;;;;12.66;89.88;99057.34;5037743;28;45708;-39
2023/10/27 04:41:55;;;;;;;;;2.33;2.00;;;;;12.67;90.05;99062.47;5019006;28;45427;-39
2023/10/27 04:44:23;;;;;;;;;2.00;0.67;;;;;12.64;89.97;99064.72;5038068;28;45360;-40
2023/10/27 04:46:50;;;;;;;;;7.00;3.00;;;;;12.61;90.08;99060.63;5019860;28;45561;-51
2023/10/27 04:49:16;;;;;;;;;2.33;2.00;;;;;12.60;89.77;99072.31;5037494;28;45894;-40
2023/10/27 04:51:41;;;;;;;;;2.00;2.00;;;;;12.59;90.51;99075.97;5038182;28;45759;-42
2023/10/27 04:54:06;;;;;;;;;3.00;2.00;;;;;12.55;89.85;99068.59;5037643;28;45321;-42
2023/10/27 04:56:33;;;;;;;;;5.00;1.00;;;;;12.64;90.48;99072.72;5037922;28;45288;-43
2023/10/27 04:58:58;;;;;;;;;3.00;3.00;;;;;12.66;89.71;99079.50;5037570;28;46363;-40
2023/10/27 05:01:25;;;;;;;;;5.67;3.00;;;;;12.73;90.01;99076.88;5036823;28;45308;-40
2023/10/27 05:03:51;;;;;;;;;9.00;3.00;;;;;12.80;89.68;99077.69;5037202;28;45393;-40
2023/10/27 05:06:16;;;;;;;;;6.67;5.33;;;;;12.86;89.21;99079.56;5037167;28;45310;-41
2023/10/27 05:08:42;;;;;;;;;8.33;2.67;;;;;12.93;89.44;99092.91;5036124;28;45457;-41
2023/10/27 05:11:07;;;;;;;;;8.33;3.00;;;;;12.93;89.04;99079.56;5036616;28;45368;-41
2023/10/27 05:13:32;;;;;;;;;4.67;1.33;;;;;13.02;89.47;99090.88;5019469;28;46138;-38
2023/10/27 05:15:58;;;;;;;;;3.67;2.33;;;;;13.07;89.32;99097.25;5037001;28;45483;-39
2023/10/27 05:18:23;;;;;;;;;5.33;2.67;;;;;13.09;88.48;99092.53;5036898;28;46542;-43
2023/10/27 05:20:49;;;;;;;;;6.33;2.33;;;;;13.11;88.29;99092.34;5037042;28;45400;-41
2023/10/27 05:23:14;;;;;;;;;3.00;3.00;;;;;13.14;88.53;99097.25;5036799;28;45645;-41
2023/10/27 05:25:41;;;;;;;;;7.00;4.00;;;;;13.15;88.22;99098.91;5036814;28;45443;-38
2023/10/27 05:28:08;;;;;;;;;3.00;2.67;;;;;13.17;87.75;99102.19;5036286;28;46321;-40
2023/10/27 05:30:37;;;;;;;;;2.67;2.67;;;;;13.18;87.88;99101.97;5036481;28;45320;-41
2023/10/27 05:33:03;;;;;;;;;8.00;3.00;;;;;13.23;87.81;99110.25;5036637;28;45338;-40
2023/10/27 05:35:29;;;;;;;;;7.00;3.00;;;;;13.26;87.45;99108.19;5036508;28;45634;-40
2023/10/27 05:37:54;;;;;;;;;2.33;2.00;;;;;13.27;87.17;99107.97;5035383;28;47114;-42
2023/10/27 05:40:19;;;;;;;;;2.00;2.00;;;;;13.31;87.08;99100.38;5036236;28;45388;-40
2023/10/27 05:42:45;;;;;;;;;8.00;3.00;;;;;13.32;86.96;99110.06;5036255;28;45454;-43
2023/10/27 05:45:11;;;;;;;;;3.00;3.00;;;;;13.32;86.89;99107.38;5036448;28;45232;-40
2023/10/27 05:47:38;;;;;;;;;3.67;3.00;;;;;13.28;86.89;99092.81;5036006;28;46753;-41
2023/10/27 05:50:06;;;;;;;;;9.00;6.33;;;;;13.32;87.00;99108.22;5036065;28;45317;-41
2023/10/27 05:52:31;;;;;;;;;5.67;5.00;;;;;13.32;87.03;99100.19;5036303;28;45393;-41
2023/10/27 05:54:57;;;;;;;;;4.00;4.00;;;;;13.30;86.90;99091.56;5036188;28;45434;-40
2023/10/27 05:57:22;;;;;;;;;8.00;5.00;;;;;13.33;86.89;99103.69;5035938;28;45411;-42
2023/10/27 05:59:48;;;;;;;;;3.00;2.67;;;;;13.33;87.04;99101.00;5036144;28;45403;-40
2023/10/27 06:02:13;;;;;;;;;6.00;3.00;;;;;13.32;87.04;99094.03;5035333;28;45435;-41
2023/10/27 06:04:39;;;;;;;;;8.67;5.33;;;;;13.29;86.64;99095.25;5036004;28;45349;-41
2023/10/27 06:07:04;;;;;;;;;5.33;3.00;;;;;13.28;86.41;99095.47;5035843;28;46143;-42
2023/10/27 06:09:30;;;;;;;;;3.00;2.00;;;;;13.29;86.84;99097.09;5035762;28;45448;-41
2023/10/27 06:11:56;;;;;;;;;5.00;2.33;;;;;13.21;86.81;99069.53;5035527;28;45360;-45
2023/10/27 06:14:21;;;;;;;;;5.00;3.00;;;;;13.29;86.76;99094.44;5036041;28;45470;-41
2023/10/27 06:16:47;;;;;;;;;3.00;1.33;;;;;13.26;86.42;99092.97;5035980;28;45464;-40
2023/10/27 06:19:13;;;;;;;;;3.00;2.00;;;;;13.13;86.50;99075.06;5035564;28;45352;-41
2023/10/27 06:21:38;;;;;;;;;3.00;2.00;;;;;13.14;86.17;99084.72;5035816;28;45379;-40
2023/10/27 06:24:04;;;;;;;;;3.67;2.00;;;;;13.08;86.92;99085.56;5036348;28;45221;-41
2023/10/27 06:26:29;;;;;;;;;7.33;3.33;;;;;13.07;86.77;99091.91;5035846;28;46067;-40
2023/10/27 06:28:55;;;;;;;;;8.00;3.67;;;;;13.02;86.92;99093.53;5036006;28;45724;-41
2023/10/27 06:31:20;;;;;;;;;2.33;1.00;;;;;13.00;86.99;99109.75;5035908;28;45474;-39
2023/10/27 06:33:46;;;;;;;;;1.33;1.33;;;;;12.97;87.23;99104.81;5036045;28;45414;-43
2023/10/27 06:36:12;;;;;;;;;2.00;1.33;;;;;12.89;87.23;99095.19;5035561;28;46370;-41
2023/10/27 06:38:37;;;;;;;;;7.67;3.67;;;;;12.95;87.05;99113.03;5035550;28;45419;-43
2023/10/27 06:41:03;;;;;;;;;2.00;1.67;;;;;12.97;86.46;99113.66;5036050;28;45397;-40
2023/10/27 06:43:30;;;;;;;;;3.00;3.00;;;;;13.00;87.01;99115.09;5035016;28;45561;-40
2023/10/27 06:45:55;;;;;;;;;5.33;3.33;;;;;13.01;87.17;99111.41;5035322;28;46100;-41
2023/10/27 06:48:21;;;;;;;;;7.00;3.67;;;;;12.98;86.67;99111.81;5035436;28;45409;-41
2023/10/27 06:50:46;;;;;;;;;4.67;3.00;;;;;12.96;86.84;99114.69;5038221;28;45335;-41
2023/10/27 06:53:11;;;;;;;;;4.67;3.00;;;;;12.92;86.94;99113.44;5039313;28;45292;-41
2023/10/27 06:55:37;;;;;;;;;5.33;2.67;;;;;12.93;87.01;99122.25;5039042;28;45896;-40
2023/10/27 06:58:04;;;;;;;;;4.33;3.00;;;;;12.89;87.44;99121.00;5038864;28;45448;-41
2023/10/27 07:00:30;;;;;;;;;8.67;3.00;;;;;12.93;86.98;99122.25;5038408;28;45933;-40
2023/10/27 07:02:56;;;;;;;;;8.67;3.00;;;;;12.95;86.95;99128.25;5039177;28;45431;-42
2023/10/27 07:05:21;;;;;;;;;2.00;2.00;;;;;12.98;86.76;99123.31;5038645;28;45396;-40
2023/10/27 07:07:47;;;;;;;;;2.33;2.33;;;;;13.02;86.60;99122.91;5038879;28;45342;-40
2023/10/27 07:10:12;;;;;;;;;2.00;2.00;;;;;13.02;86.81;99129.09;5038552;28;45424;-40
2023/10/27 07:12:38;;;;;;;;;5.00;3.33;;;;;13.05;87.12;99136.66;5038968;28;45388;-40
2023/10/27 07:15:03;;;;;;;;;3.00;3.00;;;;;13.03;87.02;99136.06;5038655;28;46083;-41
2023/10/27 07:17:29;;;;;;;;;3.33;3.00;;;;;13.04;86.06;99142.22;5038119;28;45369;-41
2023/10/27 07:19:54;;;;;;;;;3.00;1.33;;;;;13.04;86.44;99139.56;5038645;28;45388;-41
2023/10/27 07:22:20;;;;;;;;;2.00;2.00;;;;;13.05;86.09;99152.69;5038792;28;45403;-41
2023/10/27 07:24:48;;;;;;;;;2.00;2.00;;;;;13.07;85.55;99147.16;5038805;28;45490;-42
2023/10/27 07:27:14;;;;;;;;;2.67;2.00;;;;;13.15;86.17;99155.81;5038345;28;45382;-42
2023/10/27 07:29:39;;;;;;;;;4.00;3.00;;;;;13.14;85.78;99156.00;5020649;28;45289;-41
2023/10/27 07:32:05;;;;;;;;;3.00;1.33;;;;;13.25;85.36;99174.13;5020842;28;45492;-42
2023/10/27 07:34:31;;;;;;;;;2.33;2.33;;;;;13.34;84.96;99172.09;5038405;28;46349;-40
2023/10/27 07:36:56;;;;;;;;;3.33;3.33;;;;;13.43;84.91;99178.88;5038625;28;45343;-41
2023/10/27 07:39:22;;;;;;;;;3.00;3.00;;;;;13.53;84.45;99173.97;5038367;28;45352;-41
2023/10/27 07:41:49;;;;;;;;;3.67;3.00;;;;;13.60;83.72;99173.97;5038644;28;45547;-42
2023/10/27 07:44:15;;;;;;;;;4.33;4.33;;;;;13.60;83.83;99174.78;5038242;28;46313;-42
2023/10/27 07:46:40;;;;;;;;;6.00;2.00;;;;;13.56;83.79;99168.22;5038348;28;45828;-40
2023/10/27 07:49:06;;;;;;;;;4.00;2.00;;;;;13.64;83.25;99176.03;5038493;28;45843;-41
2023/10/27 07:51:32;;;;;;;;;7.00;1.67;;;;;13.75;82.80;99177.28;5038711;28;45379;-40
2023/10/27 07:53:57;;;;;;;;;4.00;2.00;;;;;13.89;82.34;99181.56;5038246;28;47118;-41
2023/10/27 07:56:22;;;;;;;;;6.00;3.00;;;;;14.05;81.78;99177.66;5038116;28;45442;-41
2023/10/27 07:58:48;;;;;;;;;2.00;2.00;;;;;14.14;81.79;99180.94;5037524;28;45381;-41
2023/10/27 08:01:13;;;;;;;;;1.67;1.67;;;;;14.17;80.98;99184.03;5037972;28;45296;-41
2023/10/27 08:03:39;;;;;;;;;2.00;2.00;;;;;14.24;80.74;99192.03;5038215;28;45288;-41
2023/10/27 08:06:08;;;;;;;;;2.33;1.00;;;;;14.29;80.36;99199.47;5019935;28;45678;-41
2023/10/27 08:08:34;;;;;;;;;2.00;1.67;;;;;14.33;80.27;99192.66;5038339;28;45720;-41
2023/10/27 08:10:59;;;;;;;;;5.00;3.00;;;;;14.44;80.29;99202.69;5038055;28;45503;-41
2023/10/27 08:13:25;;;;;;;;;1.00;1.00;;;;;14.55;79.39;99210.13;5037958;28;46288;-39
2023/10/27 08:15:50;;;;;;;;;3.67;2.00;;;;;14.65;79.41;99199.78;5037956;28;45430;-41
2023/10/27 08:18:16;;;;;;;;;1.00;1.00;;;;;14.72;78.63;99203.28;5037841;28;45471;-41
2023/10/27 08:20:42;;;;;;;;;4.00;2.00;;;;;14.70;78.24;99185.78;5037736;28;45518;-41
2023/10/27 08:23:07;;;;;;;;;2.33;2.33;;;;;14.67;78.69;99189.72;5037162;28;45995;-42
2023/10/27 08:25:33;;;;;;;;;3.67;1.33;;;;;14.65;78.32;99194.44;5037930;28;45566;-41
2023/10/27 08:27:59;;;;;;;;;3.67;3.00;;;;;14.60;78.48;99202.28;5037996;28;45321;-41
2023/10/27 08:30:24;;;;;;;;;1.00;1.00;;;;;14.72;77.86;99191.75;5037739;28;45438;-40
2023/10/27 08:32:49;;;;;;;;;3.00;1.33;;;;;14.70;77.54;99167.84;5037550;28;47303;-40
2023/10/27 08:35:15;;;;;;;;;4.00;2.00;;;;;14.81;77.39;99174.41;5037513;28;45264;-42
2023/10/27 08:37:40;;;;;;;;;3.33;1.00;;;;;14.78;77.19;99169.47;5037941;28;45389;-41
2023/10/27 08:40:11;;;;;;;;;2.33;0.00;;;;;14.80;77.74;99180.00;5037607;28;45496;-42
2023/10/27 08:42:38;;;;;;;;;1.67;0.33;;;;;14.84;76.71;99182.03;5037415;28;46118;-40
2023/10/27 08:45:04;;;;;;;;;4.00;3.00;;;;;14.91;76.33;99188.16;5037606;28;45341;-43
2023/10/27 08:47:31;;;;;;;;;1.00;1.00;;;;;14.96;76.24;99180.31;5037403;28;45731;-42
2023/10/27 08:49:59;;;;;;;;;2.00;1.00;;;;;14.98;75.84;99172.88;5019416;28;45488;-41
2023/10/27 08:52:25;;;;;;;;;8.00;2.00;;;;;15.11;75.85;99189.94;5036927;28;47056;-39
2023/10/27 08:54:50;;;;;;;;;2.00;2.00;;;;;15.22;75.43;99195.44;5036941;28;45555;-42
2023/10/27 08:57:16;;;;;;;;;2.00;0.00;;;;;15.38;75.20;99183.41;5037283;28;45274;-42
2023/10/27 08:59:42;;;;;;;;;1.00;1.00;;;;;15.79;74.24;99187.44;5037427;28;45507;-42
2023/10/27 09:02:07;;;;;;;;;1.67;1.67;;;;;16.12;72.67;99184.47;5037135;28;46041;-41
2023/10/27 09:04:34;;;;;;;;;3.00;2.00;;;;;16.64;71.43;99187.69;5036754;28;46367;-41
2023/10/27 09:06:59;;;;;;;;;4.00;1.00;;;;;17.00;69.58;99191.38;5036529;28;45294;-41
2023/10/27 09:09:25;;;;;;;;;2.67;1.33;;;;;17.28;69.39;99203.44;5037192;28;45458;-43
2023/10/27 09:11:51;;;;;;;;;2.00;2.00;;;;;17.63;66.88;99201.66;5036263;28;46124;-40
2023/10/27 09:14:17;;;;;;;;;2.00;1.00;;;;;18.35;65.15;99206.09;5036592;28;45246;-41
2023/10/27 09:16:43;;;;;;;;;2.33;2.00;;;;;19.15;63.65;99206.19;5036944;28;45422;-42
2023/10/27 09:19:24;;;;;;;;;3.25;2.00;;;;;20.89;60.29;99211.69;5037058;28;45333;-40
2023/10/27 09:21:49;;;;;;;;;3.00;1.00;;;;;21.38;57.38;99215.28;5036491;28;46662;-40
2023/10/27 09:24:23;;;;;;;;;5.00;0.75;;;;;23.16;54.06;99210.31;5018903;28;45266;-39
2023/10/27 09:26:49;;;;;;;;;1.00;1.00;;;;;24.18;50.23;99203.38;5036732;28;45369;-40
2023/10/27 09:29:15;;;;;;;;;6.00;0.00;;;;;24.78;48.78;99199.75;5036608;28;45578;-41
2023/10/27 09:31:42;;;;;;;;;1.80;1.80;;;;;24.66;48.00;99201.97;5036662;28;46289;-40
2023/10/27 09:34:23;;;;;;;;;2.20;1.20;;;;;24.31;47.91;99202.81;5036497;28;45466;-43
2023/10/27 09:36:51;;;;;;;;;3.20;2.00;;;;;24.13;49.81;99202.28;5035564;28;45491;-41
2023/10/27 09:39:19;;;;;;;;;7.20;1.60;;;;;23.94;49.99;99190.38;5036774;28;45479;-41
2023/10/27 09:41:47;;;;;;;;;2.60;1.00;;;;;23.84;49.18;99182.22;5036059;28;47138;-40
2023/10/27 09:44:18;;;;;;;;;3.40;1.80;;;;;23.96;50.52;99190.91;5036047;28;45463;-39
2023/10/27 09:46:50;;;;;;;;;2.80;2.00;;;;;24.09;48.85;99206.63;5036607;28;45344;-43
2023/10/27 09:49:39;;;;;;;;;0.60;0.60;;;;;24.37;47.88;99215.31;5036668;28;45419;-40
2023/10/27 09:52:10;;;;;;;;;1.60;0.60;;;;;24.70;47.70;99208.47;5035808;28;46238;-40
2023/10/27 09:54:36;;;;;;;;;2.40;0.80;;;;;25.30;47.87;99216.66;5036153;28;45425;-40
2023/10/27 09:57:04;;;;;;;;;5.40;1.60;;;;;25.81;43.97;99209.00;5036441;28;45349;-41
2023/10/27 09:59:30;;;;;;;;;0.20;0.20;;;;;26.61;43.23;99216.72;5036317;28;45545;-42
2023/10/27 10:01:59;;;;;;;;;2.80;2.80;;;;;27.47;43.20;99213.19;5036122;28;45465;-42
2023/10/27 10:05:04;;;;;;;;;2.00;1.00;;;;;27.81;43.19;99204.78;5035899;28;45312;-41
2023/10/27 10:07:29;;;;;;;;;1.00;0.80;;;;;27.84;39.91;99205.00;5035188;28;45340;-42
2023/10/27 10:09:55;;;;;;;;;2.00;2.00;;;;;28.54;38.39;99203.28;5036335;28;45332;-41
2023/10/27 10:12:20;;;;;;;;;2.75;0.50;;;;;29.01;37.46;99206.72;5035197;28;46465;-41
2023/10/27 10:14:49;;;;;;;;;1.00;1.00;;;;;29.14;38.79;99216.03;5018198;28;45416;-41
2023/10/27 10:17:37;;;;;;;;;1.60;1.60;;;;;28.81;37.75;99213.41;5035967;28;45418;-43
2023/10/27 10:20:03;;;;;;;;;3.00;0.60;;;;;29.14;36.67;99194.13;5036050;28;45490;-41
2023/10/27 10:22:38;;;;;;;;;3.40;2.20;;;;;28.35;39.90;99211.50;5035561;28;46561;-42
2023/10/27 10:25:26;;;;;;;;;6.20;3.20;;;;;27.05;39.94;99209.38;5035691;28;45357;-42
2023/10/27 10:28:18;;;;;;;;;1.60;1.00;;;;;25.38;43.11;99219.59;5026454;28;45472;-41
2023/10/27 10:30:46;;;;;;;;;1.00;0.00;;;;;24.44;43.94;99228.63;5031753;28;45448;-42
2023/10/27 10:33:15;;;;;;;;;2.40;2.00;;;;;23.49;45.56;99224.50;5035589;28;46301;-41
2023/10/27 10:35:42;;;;;;;;;2.40;1.60;;;;;22.72;47.12;99225.28;5035696;28;45431;-40
2023/10/27 10:38:22;;;;;;;;;4.00;1.00;;;;;22.00;48.42;99230.22;5035841;28;45364;-41
2023/10/27 10:40:58;;;;;;;;;3.00;3.00;;;;;21.84;49.04;99221.13;5036028;28;45373;-41
2023/10/27 10:43:29;;;;;;;;;2.00;1.80;;;;;21.10;50.25;99224.41;5035667;28;45397;-40
2023/10/27 10:45:56;;;;;;;;;2.60;2.60;;;;;20.62;52.20;99215.16;5035354;28;45446;-39
2023/10/27 10:48:27;;;;;;;;;6.40;6.00;;;;;20.71;53.03;99206.63;5034701;28;45416;-40
2023/10/27 10:50:55;;;;;;;;;6.00;3.50;;;;;22.17;49.09;99220.06;5035822;28;45372;-39
2023/10/27 10:53:24;;;;;;;;;5.00;3.00;;;;;22.93;47.85;99221.63;5035370;28;47072;-41
2023/10/27 10:55:51;;;;;;;;;6.60;2.00;;;;;23.33;46.72;99212.78;5035195;28;45381;-42
2023/10/27 10:58:24;;;;;;;;;3.40;1.20;;;;;23.80;46.46;99205.56;5035365;28;45276;-40
2023/10/27 11:00:49;;;;;;;;;5.80;2.80;;;;;24.02;45.68;99203.41;5035559;28;45542;-40
2023/10/27 11:03:15;;;;;;;;;0.50;0.50;;;;;24.09;45.84;99201.22;5035455;28;46793;-40
2023/10/27 11:05:41;;;;;;;;;2.20;1.60;;;;;24.04;44.65;99209.38;5035252;28;45433;-40
2023/10/27 11:08:07;;;;;;;;;1.50;0.50;;;;;24.04;45.39;99205.84;5035359;28;45460;-40
2023/10/27 11:10:33;;;;;;;;;2.00;1.80;;;;;24.34;45.32;99184.06;5035722;28;45466;-40
2023/10/27 11:13:05;;;;;;;;;2.50;0.50;;;;;24.34;43.81;99192.22;5035004;28;46388;-41
2023/10/27 11:15:50;;;;;;;;;1.60;1.20;;;;;23.63;45.65;99201.16;5035237;28;45451;-37
2023/10/27 11:18:16;;;;;;;;;6.40;5.00;;;;;23.78;44.90;99200.41;5035311;28;45384;-40
2023/10/27 11:20:47;;;;;;;;;2.20;1.00;;;;;23.70;45.89;99195.53;5035538;28;45407;-40
2023/10/27 11:23:17;;;;;;;;;3.60;1.20;;;;;23.64;46.33;99186.53;5035274;28;46361;-41
2023/10/27 11:25:43;;;;;;;;;5.80;2.80;;;;;23.38;45.80;99198.41;5035259;28;45383;-41
2023/10/27 11:28:29;;;;;;;;;3.60;1.80;;;;;23.34;48.76;99210.91;5035261;28;45413;-42
2023/10/27 11:30:58;;;;;;;;;2.20;1.60;;;;;23.31;46.61;99195.97;5035268;28;45388;-40
2023/10/27 11:33:23;;;;;;;;;2.80;2.80;;;;;23.36;47.50;99195.19;5034829;28;45579;-41